»·PEaware :: N13W KLAX-KSAN

N13W :: KLAX-KSAN

FLIGHT INFORMATION

Flight Status: Arrived
Operator: Privately registered:
United States
More flights under this callsign
Pilot: Will N. (25416)
Aircraft: CESSNA 172 SKYHAWK
(C172)
More flights by this aircraft type
Origin: KLAX Los Angeles Intl
United States
Destination: KSAN San Diego Intl-Lindbergh
United States
More flights between these airports :: More routes between these airports
Route: +VP501 VPLDP VPSRT
File this flight plan on PilotEdge
Remarks:
Altitude:
(Current/Filed)
5,500ft
Speed:
(Current/Filed)
120kts
Departed: 05-Aug-19 06:00 PM
Arrived: 05-Aug-19 06:57 PM
Distance/Time
Traveled:
95nm/0:57
Distance/Time
To Go:
Arrived

Flight Plot

Page will automatically refresh every two minutes.


Map Options




Map Legend


Flown Route
Filed Route
Departure Airport
Arrival Airport
Navaid (VOR, NDB)
Fix

Horizontal Profiles

Position Reports

Time Latitude Longitude Heading Altitude Ground
Speed
05-Aug-19 17:40 33.933731 -118.394713 89 105ft 0kts
05-Aug-19 17:41 33.933731 -118.394713 89 105ft 0kts
05-Aug-19 17:42 33.933731 -118.394713 89 105ft 0kts
05-Aug-19 17:43 33.933731 -118.394713 89 105ft 0kts
05-Aug-19 17:44 33.933731 -118.394713 89 105ft 0kts
05-Aug-19 17:45 33.933731 -118.394713 89 105ft 0kts
05-Aug-19 17:46 33.933731 -118.394713 89 105ft 0kts
05-Aug-19 17:47 33.933731 -118.394713 89 105ft 0kts
05-Aug-19 17:48 33.933731 -118.394713 89 105ft 0kts
05-Aug-19 17:49 33.933731 -118.394713 89 105ft 0kts
05-Aug-19 17:50 33.933731 -118.394713 89 105ft 0kts
05-Aug-19 17:51 33.933731 -118.394713 89 105ft 0kts
05-Aug-19 17:52 33.933731 -118.394713 89 105ft 0kts
05-Aug-19 17:53 33.934220 -118.394176 15 104ft 8kts
05-Aug-19 17:53 33.935104 -118.392771 86 102ft 9kts
05-Aug-19 17:55 33.935688 -118.386961 81 99ft 18kts
05-Aug-19 17:56 33.936406 -118.383009 15 96ft 0kts
05-Aug-19 17:57 33.936499 -118.382979 15 96ft 0kts
05-Aug-19 17:57 33.936499 -118.382979 15 96ft 0kts
05-Aug-19 17:58 33.937241 -118.383946 259 97ft 28kts
05-Aug-19 17:59 33.934195 -118.411433 254 681ft 92kts
05-Aug-19 18:00 33.932605 -118.443824 266 1519ft 95kts
05-Aug-19 18:01 33.932219 -118.475613 266 2443ft 89kts
05-Aug-19 18:02 33.932272 -118.507331 266 3012ft 111kts
05-Aug-19 18:03 33.914033 -118.526108 147 3008ft 131kts
05-Aug-19 18:04 33.886871 -118.495823 141 3007ft 135kts
05-Aug-19 18:05 33.859556 -118.464399 141 3005ft 136kts
05-Aug-19 18:06 33.832026 -118.432539 141 3003ft 137kts
05-Aug-19 18:07 33.804313 -118.400300 141 3001ft 138kts
05-Aug-19 18:08 33.778131 -118.369288 141 3423ft 122kts
05-Aug-19 18:09 33.761155 -118.335473 120 4131ft 115kts
05-Aug-19 18:10 33.748757 -118.301839 120 4920ft 106kts
05-Aug-19 18:11 33.738123 -118.268939 117 5525ft 117kts
05-Aug-19 18:12 33.724702 -118.228894 117 5521ft 132kts
05-Aug-19 18:13 33.710816 -118.187992 117 5517ft 131kts
05-Aug-19 18:14 33.696064 -118.148017 122 5514ft 129kts
05-Aug-19 18:15 33.679254 -118.109868 123 5512ft 128kts
05-Aug-19 18:16 33.661460 -118.072961 126 5509ft 127kts
05-Aug-19 18:17 33.642864 -118.036822 126 5510ft 127kts
05-Aug-19 18:18 33.623961 -118.000931 129 5512ft 126kts
05-Aug-19 18:19 33.603793 -117.966042 129 5513ft 126kts
05-Aug-19 18:20 33.583644 -117.931249 129 5515ft 127kts
05-Aug-19 18:21 33.563396 -117.896339 129 5516ft 127kts
05-Aug-19 18:22 33.541934 -117.862881 135 5517ft 126kts
05-Aug-19 18:23 33.518918 -117.830988 135 5518ft 126kts
05-Aug-19 18:24 33.495573 -117.799864 137 5623ft 120kts
05-Aug-19 18:25 33.475420 -117.772964 137 6346ft 98kts
05-Aug-19 18:26 33.457480 -117.751020 140 7075ft 89kts
05-Aug-19 18:27 33.439311 -117.729590 142 7532ft 107kts
05-Aug-19 18:28 33.414456 -117.702887 142 7530ft 126kts
05-Aug-19 18:29 33.388639 -117.675258 142 7532ft 123kts
05-Aug-19 18:30 33.363167 -117.647866 142 7534ft 123kts
05-Aug-19 18:31 33.337721 -117.620465 142 7536ft 123kts
05-Aug-19 18:32 33.312157 -117.592921 142 7536ft 123kts
05-Aug-19 18:33 33.286458 -117.565266 142 7463ft 128kts
05-Aug-19 18:34 33.260236 -117.537171 142 6965ft 125kts
05-Aug-19 18:35 33.234283 -117.509287 142 6467ft 125kts
05-Aug-19 18:36 33.208408 -117.481604 142 5970ft 125kts
05-Aug-19 18:37 33.181548 -117.455270 146 5471ft 125kts
05-Aug-19 18:38 33.153975 -117.429939 146 4975ft 125kts
05-Aug-19 18:39 33.125370 -117.406001 149 4476ft 125kts
05-Aug-19 18:40 33.096956 -117.383387 149 3791ft 119kts
05-Aug-19 18:41 33.070097 -117.362105 149 3091ft 115kts
05-Aug-19 18:42 33.043395 -117.341122 150 2384ft 114kts
05-Aug-19 18:43 33.015647 -117.323672 164 1677ft 112kts
05-Aug-19 18:44 32.985420 -117.311951 167 1491ft 115kts
05-Aug-19 18:45 32.954438 -117.301360 169 1492ft 116kts
05-Aug-19 18:46 32.923063 -117.291778 169 1492ft 117kts
05-Aug-19 18:47 32.891282 -117.281921 169 1493ft 118kts
05-Aug-19 18:48 32.859158 -117.271899 169 1493ft 120kts
05-Aug-19 18:49 32.827286 -117.258660 156 1498ft 123kts
05-Aug-19 18:50 32.799536 -117.233600 143 1430ft 128kts
05-Aug-19 18:51 32.771068 -117.208728 152 1065ft 120kts
05-Aug-19 18:52 32.745890 -117.184934 124 760ft 111kts
05-Aug-19 18:53 32.735937 -117.155137 108 961ft 81kts
05-Aug-19 18:54 32.725701 -117.150346 261 774ft 63kts
05-Aug-19 18:55 32.728364 -117.168391 286 330ft 54kts
05-Aug-19 18:56 32.732253 -117.184243 286 15ft 35kts
05-Aug-19 18:57 32.733943 -117.188027 17 17ft 0kts
05-Aug-19 18:58 32.734024 -117.187985 30 17ft 4kts
05-Aug-19 18:59 32.734176 -117.183875 9 17ft 11kts

Navigation Log

Ident Type
Flight plan parsing failed, navigation log unavailable